createdAt,value
2023-04-14T00:01:04.881Z,10.04
2023-04-14T00:03:33.084Z,10.03
2023-04-14T00:06:01.484Z,10.02
2023-04-14T00:08:29.544Z,10.01
2023-04-14T00:10:57.473Z,10.00
2023-04-14T00:13:25.487Z,9.99
2023-04-14T00:15:53.465Z,9.98
2023-04-14T00:18:21.542Z,9.96
2023-04-14T00:20:49.825Z,9.95
2023-04-14T00:23:18.724Z,9.94
2023-04-14T00:25:47.204Z,9.93
2023-04-14T00:28:15.271Z,9.92
2023-04-14T00:30:46.541Z,9.90
2023-04-14T00:33:14.806Z,9.90
2023-04-14T00:35:42.937Z,9.89
2023-04-14T00:38:11.162Z,9.88
2023-04-14T00:40:39.290Z,9.88
2023-04-14T00:43:07.420Z,9.87
2023-04-14T00:45:45.219Z,9.86
2023-04-14T00:48:14.525Z,9.85
2023-04-14T00:50:42.707Z,9.84
2023-04-14T00:53:12.006Z,9.84
2023-04-14T00:55:41.524Z,9.84
2023-04-14T00:58:09.723Z,9.83
2023-04-14T01:00:38.083Z,9.84
2023-04-14T01:03:06.824Z,9.83
2023-04-14T01:05:35.356Z,9.83
2023-04-14T01:08:03.984Z,9.83
2023-04-14T01:10:39.185Z,9.82
2023-04-14T01:13:24.556Z,9.82
2023-04-14T01:15:54.196Z,9.82
2023-04-14T01:18:42.919Z,9.82
2023-04-14T01:21:13.648Z,9.82
2023-04-14T01:23:46.547Z,9.82
2023-04-14T01:26:32.115Z,9.82
2023-04-14T01:29:06.428Z,9.82
2023-04-14T01:31:38.190Z,9.83
2023-04-14T01:34:25.095Z,9.83
2023-04-14T01:36:56.807Z,9.84
2023-04-14T01:39:28.303Z,9.83
2023-04-14T01:41:58.544Z,9.84
2023-04-14T01:44:27.886Z,9.83
2023-04-14T01:47:04.715Z,9.83
2023-04-14T01:49:34.078Z,9.83
2023-04-14T01:52:04.348Z,9.84
2023-04-14T01:54:33.779Z,9.83
2023-04-14T01:57:03.378Z,9.83
2023-04-14T01:59:33.796Z,9.83
2023-04-14T02:02:04.015Z,9.83
2023-04-14T02:04:35.481Z,9.82
2023-04-14T02:07:05.910Z,9.81
2023-04-14T02:09:34.391Z,9.80
2023-04-14T02:12:03.791Z,9.80
2023-04-14T02:14:32.694Z,9.79
2023-04-14T02:17:03.005Z,9.79
2023-04-14T02:19:31.395Z,9.79
2023-04-14T02:22:00.610Z,9.79
2023-04-14T02:24:28.877Z,9.79
2023-04-14T02:27:09.033Z,9.78
2023-04-14T02:29:40.798Z,9.78
2023-04-14T02:32:12.051Z,9.79
2023-04-14T02:34:48.002Z,9.79
2023-04-14T02:37:18.647Z,9.81
2023-04-14T02:39:53.874Z,9.81
2023-04-14T02:42:26.630Z,9.83
2023-04-14T02:44:58.929Z,9.84
2023-04-14T02:47:32.540Z,9.84
2023-04-14T02:50:02.649Z,9.85
2023-04-14T02:52:32.176Z,9.85
2023-04-14T02:55:01.828Z,9.86
2023-04-14T02:57:30.592Z,9.87
2023-04-14T02:59:59.264Z,9.88
2023-04-14T03:02:27.842Z,9.89
2023-04-14T03:05:06.981Z,9.89
2023-04-14T03:07:54.301Z,9.89
2023-04-14T03:10:24.828Z,9.89
2023-04-14T03:12:53.520Z,9.89
2023-04-14T03:15:22.835Z,9.89
2023-04-14T03:17:56.084Z,9.89
2023-04-14T03:20:25.937Z,9.88
2023-04-14T03:23:01.286Z,9.88
2023-04-14T03:25:32.118Z,9.87
2023-04-14T03:28:02.758Z,9.87
2023-04-14T03:30:33.691Z,9.87
2023-04-14T03:33:07.731Z,9.87
2023-04-14T03:35:37.927Z,9.86
2023-04-14T03:38:09.392Z,9.86
2023-04-14T03:40:41.380Z,9.85
2023-04-14T03:43:12.492Z,9.85
2023-04-14T03:45:41.692Z,9.84
2023-04-14T03:48:13.252Z,9.84
2023-04-14T03:50:46.857Z,9.83
2023-04-14T03:53:18.130Z,9.83
2023-04-14T03:55:48.935Z,9.81
2023-04-14T03:58:17.633Z,9.81
2023-04-14T04:00:47.468Z,9.80
2023-04-14T04:03:16.521Z,9.79
2023-04-14T04:05:45.550Z,9.79
2023-04-14T04:08:14.645Z,9.78
2023-04-14T04:10:44.159Z,9.78
2023-04-14T04:13:16.588Z,9.78
2023-04-14T04:15:46.139Z,9.77
2023-04-14T04:18:16.065Z,9.77
2023-04-14T04:20:46.520Z,9.77
2023-04-14T04:23:17.675Z,9.77
2023-04-14T04:25:46.234Z,9.76
2023-04-14T04:28:29.340Z,9.76
2023-04-14T04:30:59.327Z,9.76
2023-04-14T04:33:30.018Z,9.75
2023-04-14T04:35:58.691Z,9.75
2023-04-14T04:38:31.569Z,9.74
2023-04-14T04:41:00.057Z,9.74
2023-04-14T04:43:29.058Z,9.75
2023-04-14T04:46:16.807Z,9.74
2023-04-14T04:48:46.797Z,9.74
2023-04-14T04:51:15.190Z,9.74
2023-04-14T04:53:43.269Z,9.74
2023-04-14T04:56:11.545Z,9.74
2023-04-14T04:58:39.828Z,9.74
2023-04-14T05:01:09.397Z,9.74
2023-04-14T05:03:38.048Z,9.75
2023-04-14T05:06:06.209Z,9.75
2023-04-14T05:08:34.185Z,9.75
2023-04-14T05:11:02.278Z,9.75
2023-04-14T05:13:30.438Z,9.76
2023-04-14T05:16:08.813Z,9.78
2023-04-14T05:18:37.647Z,9.79
2023-04-14T05:21:07.049Z,9.80
2023-04-14T05:23:36.562Z,9.81
2023-04-14T05:26:26.939Z,9.82
2023-04-14T05:28:53.283Z,9.84
2023-04-14T05:31:21.489Z,9.85
2023-04-14T05:33:49.549Z,9.86
2023-04-14T05:36:17.764Z,9.87
2023-04-14T05:38:45.895Z,9.89
2023-04-14T05:41:14.076Z,9.89
2023-04-14T05:43:42.163Z,9.91
2023-04-14T05:46:10.277Z,9.92
2023-04-14T05:48:38.941Z,9.94
2023-04-14T05:51:06.998Z,9.95
2023-04-14T05:53:35.165Z,9.97
2023-04-14T05:56:03.150Z,9.98
2023-04-14T05:58:31.437Z,10.00
2023-04-14T06:00:59.552Z,10.01
2023-04-14T06:03:27.845Z,10.03
2023-04-14T06:05:56.035Z,10.04
2023-04-14T06:08:25.569Z,10.06
2023-04-14T06:10:53.854Z,10.08
2023-04-14T06:13:23.052Z,10.09
2023-04-14T06:15:53.607Z,10.11
2023-04-14T06:18:23.101Z,10.13
2023-04-14T06:20:51.144Z,10.14
2023-04-14T06:23:19.654Z,10.16
2023-04-14T06:25:47.858Z,10.17
2023-04-14T06:28:16.227Z,10.20
2023-04-14T06:30:44.403Z,10.23
2023-04-14T06:33:12.379Z,10.24
2023-04-14T06:35:40.965Z,10.26
2023-04-14T06:38:09.038Z,10.28
2023-04-14T06:40:37.185Z,10.30
2023-04-14T06:43:06.034Z,10.31
2023-04-14T06:45:34.365Z,10.34
2023-04-14T06:48:02.739Z,10.35
2023-04-14T06:50:30.958Z,10.38
2023-04-14T06:52:58.940Z,10.40
2023-04-14T06:55:27.226Z,10.41
2023-04-14T06:57:55.597Z,10.44
2023-04-14T07:00:23.781Z,10.45
2023-04-14T07:02:51.860Z,10.47
2023-04-14T07:05:20.654Z,10.49
2023-04-14T07:07:48.721Z,10.52
2023-04-14T07:10:16.702Z,10.54
2023-04-14T07:12:44.658Z,10.57
2023-04-14T07:15:14.481Z,10.59
2023-04-14T07:17:42.598Z,10.61
2023-04-14T07:20:11.049Z,10.64
2023-04-14T07:22:39.663Z,10.66
2023-04-14T07:25:08.234Z,10.69
2023-04-14T07:27:36.451Z,10.71
2023-04-14T07:30:05.213Z,10.73
2023-04-14T07:32:33.599Z,10.76
2023-04-14T07:35:01.899Z,10.78
2023-04-14T07:37:30.254Z,10.81
2023-04-14T07:39:59.048Z,10.83
2023-04-14T07:42:27.721Z,10.86
2023-04-14T07:44:56.106Z,10.88
2023-04-14T07:47:24.427Z,10.91
2023-04-14T07:49:54.627Z,10.94
2023-04-14T07:52:23.200Z,10.97
2023-04-14T07:54:51.276Z,11.00
2023-04-14T07:57:19.249Z,11.02
2023-04-14T07:59:47.338Z,11.06
2023-04-14T08:02:15.603Z,11.09
2023-04-14T08:04:44.712Z,11.11
2023-04-14T08:07:12.698Z,11.15
2023-04-14T08:09:40.867Z,11.18
2023-04-14T08:12:09.052Z,11.22
2023-04-14T08:14:37.219Z,11.24
2023-04-14T08:17:05.700Z,11.28
2023-04-14T08:19:34.098Z,11.31
2023-04-14T08:22:02.086Z,11.34
2023-04-14T08:24:30.037Z,11.38
2023-04-14T08:26:58.417Z,11.41
2023-04-14T08:29:26.608Z,11.44
2023-04-14T08:31:54.703Z,11.47
2023-04-14T08:34:28.405Z,11.52
2023-04-14T08:36:57.272Z,11.55
2023-04-14T08:39:25.579Z,11.59
2023-04-14T08:41:54.057Z,11.63
2023-04-14T08:44:23.081Z,11.67
2023-04-14T08:46:54.796Z,11.71
2023-04-14T08:49:33.446Z,11.75
2023-04-14T08:52:03.340Z,11.79
2023-04-14T08:54:31.525Z,11.83
2023-04-14T08:57:00.309Z,11.88
2023-04-14T08:59:28.810Z,11.93
2023-04-14T09:01:57.903Z,11.97
2023-04-14T09:04:27.613Z,12.02
2023-04-14T09:06:56.812Z,12.05
2023-04-14T09:09:25.193Z,12.10
2023-04-14T09:11:53.476Z,12.15
2023-04-14T09:14:21.964Z,12.20
2023-04-14T09:16:53.960Z,12.24
2023-04-14T09:19:22.513Z,12.29
2023-04-14T09:21:54.442Z,12.34
2023-04-14T09:24:31.757Z,12.38
2023-04-14T09:27:05.521Z,12.43
2023-04-14T09:29:33.976Z,12.49
2023-04-14T09:32:02.340Z,12.54
2023-04-14T09:34:30.472Z,12.59
2023-04-14T09:37:03.712Z,12.64
2023-04-14T09:39:32.509Z,12.69
2023-04-14T09:42:01.918Z,12.74
2023-04-14T09:44:30.700Z,12.80
2023-04-14T09:46:58.683Z,12.85
2023-04-14T09:49:27.911Z,12.91
2023-04-14T09:52:01.685Z,12.96
2023-04-14T09:54:30.398Z,13.02
2023-04-14T09:56:58.862Z,13.07
2023-04-14T09:59:34.252Z,13.13
2023-04-14T10:02:07.583Z,13.19
2023-04-14T10:04:36.844Z,13.24
2023-04-14T10:07:08.083Z,13.29
2023-04-14T10:09:37.912Z,13.34
2023-04-14T10:12:10.375Z,13.39
2023-04-14T10:14:39.651Z,13.44
2023-04-14T10:17:08.151Z,13.49
2023-04-14T10:19:37.905Z,13.52
2023-04-14T10:22:06.665Z,13.56
2023-04-14T10:24:35.129Z,13.61
2023-04-14T10:27:03.928Z,13.65
2023-04-14T10:29:32.303Z,13.68
2023-04-14T10:32:03.821Z,13.72
2023-04-14T10:34:33.474Z,13.75
2023-04-14T10:37:14.544Z,13.78
2023-04-14T10:39:45.590Z,13.82
2023-04-14T10:42:13.772Z,13.84
2023-04-14T10:44:42.047Z,13.86
2023-04-14T10:47:10.252Z,13.88
2023-04-14T10:49:39.033Z,13.90
2023-04-14T10:52:27.661Z,13.93
2023-04-14T10:55:00.986Z,13.95
2023-04-14T10:57:29.838Z,13.96
2023-04-14T10:59:59.222Z,13.98
2023-04-14T11:02:34.552Z,13.99
2023-04-14T11:05:11.808Z,13.99
2023-04-14T11:07:50.438Z,14.01
2023-04-14T11:10:24.548Z,14.02
2023-04-14T11:12:57.624Z,14.03
2023-04-14T11:15:42.948Z,14.03
2023-04-14T11:18:13.795Z,14.03
2023-04-14T11:20:42.925Z,14.04
2023-04-14T11:23:12.848Z,14.04
2023-04-14T11:25:41.547Z,14.04
2023-04-14T11:28:10.323Z,14.05
2023-04-14T11:30:40.647Z,14.05
2023-04-14T11:33:08.741Z,14.06
2023-04-14T11:35:36.924Z,14.06
2023-04-14T11:38:09.589Z,14.07
2023-04-14T11:40:37.870Z,14.08
2023-04-14T11:43:06.560Z,14.07
2023-04-14T11:45:35.044Z,14.08
2023-04-14T11:48:07.219Z,14.08
2023-04-14T11:50:39.337Z,14.08
2023-04-14T11:53:14.959Z,14.09
2023-04-14T11:55:44.860Z,14.09
2023-04-14T11:58:13.543Z,14.10
2023-04-14T12:00:42.230Z,14.10
2023-04-14T12:03:10.477Z,14.11
2023-04-14T12:05:38.832Z,14.11
2023-04-14T12:08:08.916Z,14.13
2023-04-14T12:10:43.650Z,14.13
2023-04-14T12:13:12.144Z,14.14
2023-04-14T12:15:41.714Z,14.16
2023-04-14T12:18:11.746Z,14.17
2023-04-14T12:20:45.367Z,14.19
2023-04-14T12:23:13.694Z,14.20
2023-04-14T12:25:41.833Z,14.22
2023-04-14T12:28:10.108Z,14.24
2023-04-14T12:30:38.190Z,14.25
2023-04-14T12:33:11.578Z,14.27
2023-04-14T12:35:40.901Z,14.29
2023-04-14T12:38:15.051Z,14.31
2023-04-14T12:40:46.209Z,14.33
2023-04-14T12:43:14.645Z,14.34
2023-04-14T12:45:47.521Z,14.35
2023-04-14T12:48:17.031Z,14.36
2023-04-14T12:50:45.306Z,14.38
2023-04-14T12:53:23.205Z,14.39
2023-04-14T12:56:10.622Z,14.41
2023-04-14T12:58:42.607Z,14.43
2023-04-14T13:01:11.683Z,14.44
2023-04-14T13:03:51.819Z,14.46
2023-04-14T13:06:21.573Z,14.47
2023-04-14T13:08:50.563Z,14.48
2023-04-14T13:11:19.519Z,14.50
2023-04-14T13:13:47.930Z,14.50
2023-04-14T13:16:17.737Z,14.51
2023-04-14T13:18:47.788Z,14.53
2023-04-14T13:21:16.890Z,14.54
2023-04-14T13:23:45.168Z,14.55
2023-04-14T13:26:13.239Z,14.55
2023-04-14T13:28:41.517Z,14.56
2023-04-14T13:31:10.403Z,14.57
2023-04-14T13:33:38.584Z,14.58
2023-04-14T13:36:07.071Z,14.58
2023-04-14T13:38:35.258Z,14.59
2023-04-14T13:41:03.421Z,14.61
2023-04-14T13:43:33.144Z,14.60
2023-04-14T13:46:01.388Z,14.61
2023-04-14T13:48:31.345Z,14.62
2023-04-14T13:51:02.595Z,14.62
2023-04-14T13:53:31.384Z,14.62
2023-04-14T13:55:59.376Z,14.63
2023-04-14T13:58:27.641Z,14.63
2023-04-14T14:00:56.445Z,14.62
2023-04-14T14:03:25.446Z,14.63
2023-04-14T14:05:53.910Z,14.63
2023-04-14T14:08:22.103Z,14.63
2023-04-14T14:10:50.585Z,14.64
2023-04-14T14:13:20.742Z,14.63
2023-04-14T14:15:49.081Z,14.63
2023-04-14T14:18:17.774Z,14.63
2023-04-14T14:20:45.760Z,14.63
2023-04-14T14:23:15.766Z,14.63
2023-04-14T14:25:43.771Z,14.61
2023-04-14T14:28:12.732Z,14.59
2023-04-14T14:30:41.120Z,14.58
2023-04-14T14:33:09.206Z,14.56
2023-04-14T14:35:37.789Z,14.54
2023-04-14T14:38:05.864Z,14.53
2023-04-14T14:40:33.865Z,14.51
2023-04-14T14:43:02.270Z,14.48
2023-04-14T14:45:31.874Z,14.45
2023-04-14T14:48:01.519Z,14.40
2023-04-14T14:50:29.619Z,14.37
2023-04-14T14:52:57.654Z,14.33
2023-04-14T14:55:25.936Z,14.29
2023-04-14T14:57:53.854Z,14.25
2023-04-14T15:00:22.094Z,14.22
2023-04-14T15:02:50.592Z,14.19
2023-04-14T15:05:18.870Z,14.17
2023-04-14T15:07:46.932Z,14.13
2023-04-14T15:10:15.432Z,14.09
2023-04-14T15:12:43.536Z,14.06
2023-04-14T15:15:12.107Z,14.03
2023-04-14T15:17:40.118Z,13.99
2023-04-14T15:20:08.487Z,13.95
2023-04-14T15:22:36.666Z,13.92
2023-04-14T15:25:05.271Z,13.88
2023-04-14T15:27:33.388Z,13.85
2023-04-14T15:30:01.635Z,13.83
2023-04-14T15:32:29.854Z,13.81
2023-04-14T15:34:58.099Z,13.80
2023-04-14T15:37:26.904Z,13.79
2023-04-14T15:39:55.524Z,13.77
2023-04-14T15:42:23.673Z,13.76
2023-04-14T15:44:51.950Z,13.75
2023-04-14T15:47:19.957Z,13.73
2023-04-14T15:49:48.540Z,13.72
2023-04-14T15:52:18.104Z,13.71
2023-04-14T15:54:46.382Z,13.70
2023-04-14T15:57:14.459Z,13.69
2023-04-14T15:59:42.429Z,13.68
2023-04-14T16:02:10.369Z,13.66
2023-04-14T16:04:38.661Z,13.65
2023-04-14T16:07:07.081Z,13.63
2023-04-14T16:09:35.556Z,13.62
2023-04-14T16:12:03.633Z,13.60
2023-04-14T16:14:32.643Z,13.58
2023-04-14T16:17:00.707Z,13.56
2023-04-14T16:19:28.695Z,13.56
2023-04-14T16:21:57.169Z,13.55
2023-04-14T16:24:25.251Z,13.54
2023-04-14T16:26:53.226Z,13.53
2023-04-14T16:29:21.507Z,13.51
2023-04-14T16:31:49.671Z,13.50
2023-04-14T16:34:20.491Z,13.47
2023-04-14T16:36:48.506Z,13.44
2023-04-14T16:39:16.887Z,13.40
2023-04-14T16:41:45.991Z,13.37
2023-04-14T16:44:14.171Z,13.34
2023-04-14T16:46:42.375Z,13.31
2023-04-14T16:49:11.144Z,13.29
2023-04-14T16:51:39.417Z,13.28
2023-04-14T16:54:07.497Z,13.26
2023-04-14T16:56:36.932Z,13.24
2023-04-14T16:59:07.316Z,13.22
2023-04-14T17:01:35.743Z,13.20
2023-04-14T17:04:04.759Z,13.19
2023-04-14T17:06:33.170Z,13.17
2023-04-14T17:09:01.660Z,13.15
2023-04-14T17:11:30.039Z,13.13
2023-04-14T17:13:58.012Z,13.11
2023-04-14T17:16:26.206Z,13.08
2023-04-14T17:18:54.572Z,13.07
2023-04-14T17:21:23.468Z,13.05
2023-04-14T17:23:51.850Z,13.03
2023-04-14T17:26:20.133Z,13.00
2023-04-14T17:28:48.413Z,12.99
2023-04-14T17:31:16.848Z,12.97
2023-04-14T17:33:45.494Z,12.96
2023-04-14T17:36:15.380Z,12.93
2023-04-14T17:38:43.893Z,12.93
2023-04-14T17:41:12.903Z,12.90
2023-04-14T17:43:41.901Z,12.87
2023-04-14T17:46:10.754Z,12.85
2023-04-14T17:48:39.267Z,12.83
2023-04-14T17:51:07.552Z,12.81
2023-04-14T17:53:36.251Z,12.79
2023-04-14T17:56:04.727Z,12.76
2023-04-14T17:58:32.809Z,12.72
2023-04-14T18:01:01.011Z,12.68
2023-04-14T18:03:29.412Z,12.65
2023-04-14T18:05:57.750Z,12.63
2023-04-14T18:08:26.136Z,12.62
2023-04-14T18:10:54.414Z,12.59
2023-04-14T18:13:22.688Z,12.57
2023-04-14T18:15:50.796Z,12.54
2023-04-14T18:18:18.912Z,12.52
2023-04-14T18:20:50.607Z,12.50
2023-04-14T18:23:19.293Z,12.48
2023-04-14T18:28:18.422Z,12.44
2023-04-14T18:30:52.402Z,12.42
2023-04-14T18:33:20.704Z,12.40
2023-04-14T18:35:52.881Z,12.38
2023-04-14T18:38:21.325Z,12.36
2023-04-14T18:40:49.537Z,12.35
2023-04-14T18:43:17.929Z,12.33
2023-04-14T18:45:49.540Z,12.31
2023-04-14T18:48:17.863Z,12.29
2023-04-14T18:50:46.046Z,12.27
2023-04-14T18:53:14.853Z,12.25
2023-04-14T18:55:45.734Z,12.24
2023-04-14T18:58:14.384Z,12.22
2023-04-14T19:00:45.245Z,12.21
2023-04-14T19:03:13.622Z,12.19
2023-04-14T19:05:42.382Z,12.17
2023-04-14T19:08:10.809Z,12.15
2023-04-14T19:10:39.930Z,12.13
2023-04-14T19:13:08.045Z,12.10
2023-04-14T19:15:36.838Z,12.08
2023-04-14T19:18:05.168Z,12.06
2023-04-14T19:20:33.906Z,12.04
2023-04-14T19:23:01.886Z,12.02
2023-04-14T19:25:30.933Z,11.99
2023-04-14T19:28:01.418Z,11.95
2023-04-14T19:30:29.493Z,11.91
2023-04-14T19:32:57.937Z,11.88
2023-04-14T19:35:26.059Z,11.87
2023-04-14T19:37:56.797Z,11.84
2023-04-14T19:40:25.421Z,11.82
2023-04-14T19:42:55.431Z,11.80
2023-04-14T19:45:23.477Z,11.78
2023-04-14T19:47:51.960Z,11.76
2023-04-14T19:50:20.443Z,11.76
2023-04-14T19:52:51.486Z,11.74
2023-04-14T19:55:19.919Z,11.73
2023-04-14T19:57:48.468Z,11.71
2023-04-14T20:00:17.091Z,11.68
2023-04-14T20:02:45.284Z,11.67
2023-04-14T20:05:16.378Z,11.65
2023-04-14T20:07:44.354Z,11.62
2023-04-14T20:10:12.270Z,11.60
2023-04-14T20:12:40.610Z,11.58
2023-04-14T20:15:09.038Z,11.55
2023-04-14T20:17:37.314Z,11.51
2023-04-14T20:20:06.032Z,11.47
2023-04-14T20:22:34.269Z,11.45
2023-04-14T20:25:02.325Z,11.42
2023-04-14T20:27:30.399Z,11.38
2023-04-14T20:29:58.471Z,11.34
2023-04-14T20:32:26.783Z,11.31
2023-04-14T20:34:55.135Z,11.28
2023-04-14T20:37:23.635Z,11.25
2023-04-14T20:39:53.354Z,11.21
2023-04-14T20:42:21.414Z,11.17
2023-04-14T20:44:49.505Z,11.14
2023-04-14T20:47:17.783Z,11.10
2023-04-14T20:49:45.957Z,11.05
2023-04-14T20:52:14.852Z,11.02
2023-04-14T20:54:42.937Z,10.99
2023-04-14T20:57:11.000Z,10.96
2023-04-14T20:59:39.424Z,10.93
2023-04-14T21:02:08.405Z,10.90
2023-04-14T21:04:36.765Z,10.87
2023-04-14T21:07:04.944Z,10.85
2023-04-14T21:09:33.032Z,10.81
2023-04-14T21:12:14.467Z,10.77
2023-04-14T21:15:49.116Z,10.73
2023-04-14T21:17:34.381Z,10.69
2023-04-14T21:20:03.757Z,10.65
2023-04-14T21:22:32.294Z,10.62
2023-04-14T21:25:00.677Z,10.59
2023-04-14T21:27:28.748Z,10.55
2023-04-14T21:29:56.824Z,10.50
2023-04-14T21:32:25.156Z,10.47
2023-04-14T21:34:53.188Z,10.45
2023-04-14T21:37:21.258Z,10.43
2023-04-14T21:39:49.216Z,10.41
2023-04-14T21:42:17.721Z,10.39
2023-04-14T21:44:46.208Z,10.36
2023-04-14T21:47:14.277Z,10.35
2023-04-14T21:49:42.568Z,10.32
2023-04-14T21:52:10.525Z,10.30
2023-04-14T21:54:41.484Z,10.28
2023-04-14T21:57:09.867Z,10.23
2023-04-14T21:59:38.255Z,10.16
2023-04-14T22:02:06.434Z,10.07
2023-04-14T22:04:37.009Z,9.99
2023-04-14T22:07:06.601Z,9.93
2023-04-14T22:09:35.264Z,9.87
2023-04-14T22:12:03.644Z,9.82
2023-04-14T22:14:31.719Z,9.78
2023-04-14T22:17:00.950Z,9.75
2023-04-14T22:19:30.119Z,9.70
2023-04-14T22:21:58.307Z,9.66
2023-04-14T22:24:26.392Z,9.63
2023-04-14T22:26:54.454Z,9.60
2023-04-14T22:29:22.656Z,9.57
2023-04-14T22:31:50.713Z,9.53
2023-04-14T22:34:21.045Z,9.49
2023-04-14T22:36:49.315Z,9.45
2023-04-14T22:39:17.603Z,9.41
2023-04-14T22:41:49.681Z,9.37
2023-04-14T22:44:18.770Z,9.33
2023-04-14T22:46:46.952Z,9.31
2023-04-14T22:49:15.230Z,9.29
2023-04-14T22:51:43.305Z,9.26
2023-04-14T22:54:11.682Z,9.24
2023-04-14T22:56:41.115Z,9.22
2023-04-14T22:59:09.275Z,9.20
2023-04-14T23:01:37.663Z,9.19
2023-04-14T23:04:05.934Z,9.18
2023-04-14T23:06:34.116Z,9.17
2023-04-14T23:09:02.567Z,9.15
2023-04-14T23:11:30.988Z,9.15
2023-04-14T23:13:59.266Z,9.14
2023-04-14T23:16:27.721Z,9.13
2023-04-14T23:18:56.347Z,9.13
2023-04-14T23:21:25.125Z,9.12
2023-04-14T23:23:53.309Z,9.11
2023-04-14T23:26:21.986Z,9.10
2023-04-14T23:28:50.705Z,9.09
2023-04-14T23:31:19.028Z,9.09
2023-04-14T23:33:49.609Z,9.09
2023-04-14T23:36:17.683Z,9.10
2023-04-14T23:38:46.173Z,9.11
2023-04-14T23:41:14.452Z,9.11
2023-04-14T23:43:42.631Z,9.13
2023-04-14T23:46:10.869Z,9.13
2023-04-14T23:48:39.123Z,9.13
2023-04-14T23:51:17.856Z,9.13
2023-04-14T23:53:49.476Z,9.12
2023-04-14T23:56:17.799Z,9.12
2023-04-14T23:58:45.882Z,9.12
